sensor_id;sensor_type;location;lat;lon;timestamp;temperature;humidity
1137;DHT22;557;48.466;7.950;2022-11-11T00:00:36;8.20;99.90
1137;DHT22;557;48.466;7.950;2022-11-11T00:03:21;8.20;99.90
1137;DHT22;557;48.466;7.950;2022-11-11T00:06:10;8.20;99.90
1137;DHT22;557;48.466;7.950;2022-11-11T00:08:56;8.20;99.90
1137;DHT22;557;48.466;7.950;2022-11-11T00:11:42;8.30;99.90
1137;DHT22;557;48.466;7.950;2022-11-11T00:14:28;8.20;99.90
1137;DHT22;557;48.466;7.950;2022-11-11T00:17:14;8.20;99.90
1137;DHT22;557;48.466;7.950;2022-11-11T00:20:18;8.10;99.90
1137;DHT22;557;48.466;7.950;2022-11-11T00:23:23;8.10;99.90
1137;DHT22;557;48.466;7.950;2022-11-11T00:26:27;7.90;99.90
1137;DHT22;557;48.466;7.950;2022-11-11T00:29:14;7.70;99.90
1137;DHT22;557;48.466;7.950;2022-11-11T00:32:00;7.80;99.90
1137;DHT22;557;48.466;7.950;2022-11-11T00:35:04;7.70;99.90
1137;DHT22;557;48.466;7.950;2022-11-11T00:38:09;7.60;99.90
1137;DHT22;557;48.466;7.950;2022-11-11T00:40:54;7.50;99.90
1137;DHT22;557;48.466;7.950;2022-11-11T00:43:40;7.50;99.90
1137;DHT22;557;48.466;7.950;2022-11-11T00:46:27;7.40;99.90
1137;DHT22;557;48.466;7.950;2022-11-11T00:49:31;7.30;99.90
1137;DHT22;557;48.466;7.950;2022-11-11T00:52:34;7.30;99.90
1137;DHT22;557;48.466;7.950;2022-11-11T00:55:20;7.20;99.90
1137;DHT22;557;48.466;7.950;2022-11-11T00:58:05;7.20;99.90
1137;DHT22;557;48.466;7.950;2022-11-11T01:00:51;7.20;99.90
1137;DHT22;557;48.466;7.950;2022-11-11T01:03:39;7.20;99.90
1137;DHT22;557;48.466;7.950;2022-11-11T01:06:25;7.30;99.90
1137;DHT22;557;48.466;7.950;2022-11-11T01:09:11;7.20;99.90
1137;DHT22;557;48.466;7.950;2022-11-11T01:11:57;7.20;99.90
1137;DHT22;557;48.466;7.950;2022-11-11T01:14:43;7.20;99.90
1137;DHT22;557;48.466;7.950;2022-11-11T01:17:29;7.10;99.90
1137;DHT22;557;48.466;7.950;2022-11-11T01:20:16;7.20;99.90
1137;DHT22;557;48.466;7.950;2022-11-11T01:23:02;7.20;99.90
1137;DHT22;557;48.466;7.950;2022-11-11T01:25:48;7.20;99.90
1137;DHT22;557;48.466;7.950;2022-11-11T01:28:35;7.10;99.90
1137;DHT22;557;48.466;7.950;2022-11-11T01:31:23;7.00;99.90
1137;DHT22;557;48.466;7.950;2022-11-11T01:34:09;6.90;99.90
1137;DHT22;557;48.466;7.950;2022-11-11T01:36:56;6.80;99.90
1137;DHT22;557;48.466;7.950;2022-11-11T01:39:41;6.80;99.90
1137;DHT22;557;48.466;7.950;2022-11-11T01:42:27;6.70;99.90
1137;DHT22;557;48.466;7.950;2022-11-11T01:45:45;6.70;99.90
1137;DHT22;557;48.466;7.950;2022-11-11T01:48:34;6.80;99.90
1137;DHT22;557;48.466;7.950;2022-11-11T01:51:41;6.80;99.90
1137;DHT22;557;48.466;7.950;2022-11-11T01:54:32;6.80;99.90
1137;DHT22;557;48.466;7.950;2022-11-11T01:57:26;6.90;99.90
1137;DHT22;557;48.466;7.950;2022-11-11T02:00:15;6.80;99.90
1137;DHT22;557;48.466;7.950;2022-11-11T02:03:05;6.80;99.90
1137;DHT22;557;48.466;7.950;2022-11-11T02:05:51;6.80;99.90
1137;DHT22;557;48.466;7.950;2022-11-11T02:08:39;6.80;99.90
1137;DHT22;557;48.466;7.950;2022-11-11T02:11:27;6.80;99.90
1137;DHT22;557;48.466;7.950;2022-11-11T02:14:32;6.90;99.90
1137;DHT22;557;48.466;7.950;2022-11-11T02:17:23;6.80;99.90
1137;DHT22;557;48.466;7.950;2022-11-11T02:20:13;6.80;99.90
1137;DHT22;557;48.466;7.950;2022-11-11T02:23:02;6.80;99.90
1137;DHT22;557;48.466;7.950;2022-11-11T02:25:51;6.80;99.90
1137;DHT22;557;48.466;7.950;2022-11-11T02:28:37;6.80;99.90
1137;DHT22;557;48.466;7.950;2022-11-11T02:31:26;6.80;99.90
1137;DHT22;557;48.466;7.950;2022-11-11T02:34:12;6.80;99.90
1137;DHT22;557;48.466;7.950;2022-11-11T02:36:59;6.80;99.90
1137;DHT22;557;48.466;7.950;2022-11-11T02:39:47;6.80;99.90
1137;DHT22;557;48.466;7.950;2022-11-11T02:42:35;6.90;99.90
1137;DHT22;557;48.466;7.950;2022-11-11T02:45:21;6.90;99.90
1137;DHT22;557;48.466;7.950;2022-11-11T02:48:07;6.90;99.90
1137;DHT22;557;48.466;7.950;2022-11-11T02:50:53;6.90;99.90
1137;DHT22;557;48.466;7.950;2022-11-11T02:53:38;6.90;99.90
1137;DHT22;557;48.466;7.950;2022-11-11T02:56:24;6.90;99.90
1137;DHT22;557;48.466;7.950;2022-11-11T02:59:25;6.90;99.90
1137;DHT22;557;48.466;7.950;2022-11-11T03:02:10;6.90;99.90
1137;DHT22;557;48.466;7.950;2022-11-11T03:04:57;6.90;99.90
1137;DHT22;557;48.466;7.950;2022-11-11T03:07:43;6.80;99.90
1137;DHT22;557;48.466;7.950;2022-11-11T03:10:29;6.80;99.90
1137;DHT22;557;48.466;7.950;2022-11-11T03:13:14;6.80;99.90
1137;DHT22;557;48.466;7.950;2022-11-11T03:16:01;6.80;99.90
1137;DHT22;557;48.466;7.950;2022-11-11T03:18:47;6.80;99.90
1137;DHT22;557;48.466;7.950;2022-11-11T03:21:31;6.80;99.90
1137;DHT22;557;48.466;7.950;2022-11-11T03:24:17;6.80;99.90
1137;DHT22;557;48.466;7.950;2022-11-11T03:27:02;6.80;99.90
1137;DHT22;557;48.466;7.950;2022-11-11T03:29:47;6.70;99.90
1137;DHT22;557;48.466;7.950;2022-11-11T03:32:33;6.70;99.90
1137;DHT22;557;48.466;7.950;2022-11-11T03:35:19;6.70;99.90
1137;DHT22;557;48.466;7.950;2022-11-11T03:38:06;6.70;99.90
1137;DHT22;557;48.466;7.950;2022-11-11T03:41:06;6.70;99.90
1137;DHT22;557;48.466;7.950;2022-11-11T03:43:52;6.60;99.90
1137;DHT22;557;48.466;7.950;2022-11-11T03:46:37;6.60;99.90
1137;DHT22;557;48.466;7.950;2022-11-11T03:49:24;6.60;99.90
1137;DHT22;557;48.466;7.950;2022-11-11T03:52:10;6.60;99.90
1137;DHT22;557;48.466;7.950;2022-11-11T03:54:55;6.50;99.90
1137;DHT22;557;48.466;7.950;2022-11-11T03:57:42;6.60;99.90
1137;DHT22;557;48.466;7.950;2022-11-11T04:00:28;6.60;99.90
1137;DHT22;557;48.466;7.950;2022-11-11T04:03:15;6.60;99.90
1137;DHT22;557;48.466;7.950;2022-11-11T04:06:20;6.50;99.90
1137;DHT22;557;48.466;7.950;2022-11-11T04:09:23;6.50;99.90
1137;DHT22;557;48.466;7.950;2022-11-11T04:12:28;6.50;99.90
1137;DHT22;557;48.466;7.950;2022-11-11T04:15:14;6.60;99.90
1137;DHT22;557;48.466;7.950;2022-11-11T04:18:17;6.60;99.90
1137;DHT22;557;48.466;7.950;2022-11-11T04:21:25;6.60;99.90
1137;DHT22;557;48.466;7.950;2022-11-11T04:24:28;6.60;99.90
1137;DHT22;557;48.466;7.950;2022-11-11T04:27:32;6.60;99.90
1137;DHT22;557;48.466;7.950;2022-11-11T04:30:17;6.70;99.90
1137;DHT22;557;48.466;7.950;2022-11-11T04:33:02;6.60;99.90
1137;DHT22;557;48.466;7.950;2022-11-11T04:35:48;6.60;99.90
1137;DHT22;557;48.466;7.950;2022-11-11T04:38:35;6.70;99.90
1137;DHT22;557;48.466;7.950;2022-11-11T04:41:39;6.70;99.90
1137;DHT22;557;48.466;7.950;2022-11-11T04:44:24;6.70;99.90
1137;DHT22;557;48.466;7.950;2022-11-11T04:47:28;6.70;99.90
1137;DHT22;557;48.466;7.950;2022-11-11T04:50:14;6.70;99.90
1137;DHT22;557;48.466;7.950;2022-11-11T04:53:00;6.70;99.90
1137;DHT22;557;48.466;7.950;2022-11-11T04:55:47;6.60;99.90
1137;DHT22;557;48.466;7.950;2022-11-11T04:58:50;6.60;99.90
1137;DHT22;557;48.466;7.950;2022-11-11T05:01:56;6.40;99.90
1137;DHT22;557;48.466;7.950;2022-11-11T05:05:00;6.20;99.90
1137;DHT22;557;48.466;7.950;2022-11-11T05:07:46;6.20;99.90
1137;DHT22;557;48.466;7.950;2022-11-11T05:10:51;6.20;99.90
1137;DHT22;557;48.466;7.950;2022-11-11T05:13:36;6.10;99.90
1137;DHT22;557;48.466;7.950;2022-11-11T05:16:42;6.10;99.90
1137;DHT22;557;48.466;7.950;2022-11-11T05:19:46;6.10;99.90
1137;DHT22;557;48.466;7.950;2022-11-11T05:22:49;6.10;99.90
1137;DHT22;557;48.466;7.950;2022-11-11T05:25:35;6.20;99.90
1137;DHT22;557;48.466;7.950;2022-11-11T05:28:20;6.10;99.90
1137;DHT22;557;48.466;7.950;2022-11-11T05:31:06;6.10;99.90
1137;DHT22;557;48.466;7.950;2022-11-11T05:33:52;6.10;99.90
1137;DHT22;557;48.466;7.950;2022-11-11T05:36:37;6.00;99.90
1137;DHT22;557;48.466;7.950;2022-11-11T05:39:23;6.00;99.90
1137;DHT22;557;48.466;7.950;2022-11-11T05:42:08;5.90;99.90
1137;DHT22;557;48.466;7.950;2022-11-11T05:44:55;5.90;99.90
1137;DHT22;557;48.466;7.950;2022-11-11T05:47:41;6.00;99.90
1137;DHT22;557;48.466;7.950;2022-11-11T05:50:27;6.00;99.90
1137;DHT22;557;48.466;7.950;2022-11-11T05:53:13;6.00;99.90
1137;DHT22;557;48.466;7.950;2022-11-11T05:55:58;6.00;99.90
1137;DHT22;557;48.466;7.950;2022-11-11T05:58:44;6.00;99.90
1137;DHT22;557;48.466;7.950;2022-11-11T06:01:31;6.00;99.90
1137;DHT22;557;48.466;7.950;2022-11-11T06:04:16;6.00;99.90
1137;DHT22;557;48.466;7.950;2022-11-11T06:07:02;6.00;99.90
1137;DHT22;557;48.466;7.950;2022-11-11T06:09:47;6.00;99.90
1137;DHT22;557;48.466;7.950;2022-11-11T06:12:33;6.00;99.90
1137;DHT22;557;48.466;7.950;2022-11-11T06:15:39;6.00;99.90
1137;DHT22;557;48.466;7.950;2022-11-11T06:18:26;6.00;99.90
1137;DHT22;557;48.466;7.950;2022-11-11T06:21:12;6.00;99.90
1137;DHT22;557;48.466;7.950;2022-11-11T06:23:57;6.00;99.90
1137;DHT22;557;48.466;7.950;2022-11-11T06:26:43;6.00;99.90
1137;DHT22;557;48.466;7.950;2022-11-11T06:29:28;5.90;99.90
1137;DHT22;557;48.466;7.950;2022-11-11T06:32:14;5.90;99.90
1137;DHT22;557;48.466;7.950;2022-11-11T06:35:01;5.80;99.90
1137;DHT22;557;48.466;7.950;2022-11-11T06:37:47;5.90;99.90
1137;DHT22;557;48.466;7.950;2022-11-11T06:40:33;5.80;99.90
1137;DHT22;557;48.466;7.950;2022-11-11T06:43:19;5.80;99.90
1137;DHT22;557;48.466;7.950;2022-11-11T06:46:04;5.90;99.90
1137;DHT22;557;48.466;7.950;2022-11-11T06:48:50;5.90;99.90
1137;DHT22;557;48.466;7.950;2022-11-11T06:51:37;6.00;99.90
1137;DHT22;557;48.466;7.950;2022-11-11T06:54:23;6.00;99.90
1137;DHT22;557;48.466;7.950;2022-11-11T06:57:08;6.00;99.90
1137;DHT22;557;48.466;7.950;2022-11-11T06:59:53;6.00;99.90
1137;DHT22;557;48.466;7.950;2022-11-11T07:02:39;6.00;99.90
1137;DHT22;557;48.466;7.950;2022-11-11T07:05:24;6.00;99.90
1137;DHT22;557;48.466;7.950;2022-11-11T07:08:12;6.00;99.90
1137;DHT22;557;48.466;7.950;2022-11-11T07:10:58;6.10;99.90
1137;DHT22;557;48.466;7.950;2022-11-11T07:13:45;6.00;99.90
1137;DHT22;557;48.466;7.950;2022-11-11T07:16:30;6.10;99.90
1137;DHT22;557;48.466;7.950;2022-11-11T07:19:16;6.10;99.90
1137;DHT22;557;48.466;7.950;2022-11-11T07:22:01;6.20;99.90
1137;DHT22;557;48.466;7.950;2022-11-11T07:24:48;6.20;99.90
1137;DHT22;557;48.466;7.950;2022-11-11T07:27:36;6.20;99.90
1137;DHT22;557;48.466;7.950;2022-11-11T07:30:22;6.20;99.90
1137;DHT22;557;48.466;7.950;2022-11-11T07:33:07;6.30;99.90
1137;DHT22;557;48.466;7.950;2022-11-11T07:35:53;6.40;99.90
1137;DHT22;557;48.466;7.950;2022-11-11T07:38:38;6.40;99.90
1137;DHT22;557;48.466;7.950;2022-11-11T07:41:25;6.40;99.90
1137;DHT22;557;48.466;7.950;2022-11-11T07:44:11;6.40;99.90
1137;DHT22;557;48.466;7.950;2022-11-11T07:46:57;6.40;99.90
1137;DHT22;557;48.466;7.950;2022-11-11T07:49:42;6.50;99.90
1137;DHT22;557;48.466;7.950;2022-11-11T07:52:28;6.50;99.90
1137;DHT22;557;48.466;7.950;2022-11-11T07:55:13;6.50;99.90
1137;DHT22;557;48.466;7.950;2022-11-11T07:58:00;6.60;99.90
1137;DHT22;557;48.466;7.950;2022-11-11T08:00:46;6.70;99.90
1137;DHT22;557;48.466;7.950;2022-11-11T08:03:32;6.80;99.90
1137;DHT22;557;48.466;7.950;2022-11-11T08:06:19;6.80;99.90
1137;DHT22;557;48.466;7.950;2022-11-11T08:09:05;6.80;99.90
1137;DHT22;557;48.466;7.950;2022-11-11T08:11:51;6.80;99.90
1137;DHT22;557;48.466;7.950;2022-11-11T08:14:56;6.80;99.90
1137;DHT22;557;48.466;7.950;2022-11-11T08:17:41;6.90;99.90
1137;DHT22;557;48.466;7.950;2022-11-11T08:20:27;6.90;99.90
1137;DHT22;557;48.466;7.950;2022-11-11T08:23:13;6.90;99.90
1137;DHT22;557;48.466;7.950;2022-11-11T08:26:05;7.00;99.90
1137;DHT22;557;48.466;7.950;2022-11-11T08:28:51;7.10;99.90
1137;DHT22;557;48.466;7.950;2022-11-11T08:31:38;7.20;99.90
1137;DHT22;557;48.466;7.950;2022-11-11T08:34:24;7.20;99.90
1137;DHT22;557;48.466;7.950;2022-11-11T08:37:09;7.30;99.90
1137;DHT22;557;48.466;7.950;2022-11-11T08:39:55;7.30;99.90
1137;DHT22;557;48.466;7.950;2022-11-11T08:42:41;7.30;99.90
1137;DHT22;557;48.466;7.950;2022-11-11T08:45:27;7.40;99.90
1137;DHT22;557;48.466;7.950;2022-11-11T08:48:14;7.50;99.90
1137;DHT22;557;48.466;7.950;2022-11-11T08:51:00;7.50;99.90
1137;DHT22;557;48.466;7.950;2022-11-11T08:53:45;7.60;99.90
1137;DHT22;557;48.466;7.950;2022-11-11T08:56:31;7.60;99.90
1137;DHT22;557;48.466;7.950;2022-11-11T08:59:17;7.60;99.90
1137;DHT22;557;48.466;7.950;2022-11-11T09:02:03;7.70;99.90
1137;DHT22;557;48.466;7.950;2022-11-11T09:04:50;7.80;99.90
1137;DHT22;557;48.466;7.950;2022-11-11T09:07:35;7.90;99.90
1137;DHT22;557;48.466;7.950;2022-11-11T09:10:21;7.90;99.90
1137;DHT22;557;48.466;7.950;2022-11-11T09:13:07;7.80;99.90
1137;DHT22;557;48.466;7.950;2022-11-11T09:15:52;8.00;99.90
1137;DHT22;557;48.466;7.950;2022-11-11T09:18:38;8.20;99.90
1137;DHT22;557;48.466;7.950;2022-11-11T09:21:25;8.20;99.90
1137;DHT22;557;48.466;7.950;2022-11-11T09:24:11;8.40;99.90
1137;DHT22;557;48.466;7.950;2022-11-11T09:26:56;8.60;99.90
1137;DHT22;557;48.466;7.950;2022-11-11T09:29:42;8.80;99.90
1137;DHT22;557;48.466;7.950;2022-11-11T09:32:28;8.80;99.90
1137;DHT22;557;48.466;7.950;2022-11-11T09:35:14;9.00;99.90
1137;DHT22;557;48.466;7.950;2022-11-11T09:38:01;9.10;99.90
1137;DHT22;557;48.466;7.950;2022-11-11T09:41:08;9.30;87.30
1137;DHT22;557;48.466;7.950;2022-11-11T09:43:59;9.30;93.50
1137;DHT22;557;48.466;7.950;2022-11-11T09:46:53;9.50;49.80
1137;DHT22;557;48.466;7.950;2022-11-11T09:49:49;9.80;59.40
1137;DHT22;557;48.466;7.950;2022-11-11T09:52:40;10.10;32.40
1137;DHT22;557;48.466;7.950;2022-11-11T09:55:32;10.30;1.00
1137;DHT22;557;48.466;7.950;2022-11-11T09:58:23;10.40;1.00
1137;DHT22;557;48.466;7.950;2022-11-11T10:01:13;10.60;1.00
1137;DHT22;557;48.466;7.950;2022-11-11T10:04:07;10.60;1.00
1137;DHT22;557;48.466;7.950;2022-11-11T10:07:00;10.70;1.00
1137;DHT22;557;48.466;7.950;2022-11-11T10:09:52;10.80;1.00
1137;DHT22;557;48.466;7.950;2022-11-11T10:12:46;10.90;1.00
1137;DHT22;557;48.466;7.950;2022-11-11T10:15:35;11.10;1.00
1137;DHT22;557;48.466;7.950;2022-11-11T10:18:39;11.20;1.00
1137;DHT22;557;48.466;7.950;2022-11-11T10:21:32;11.20;1.00
1137;DHT22;557;48.466;7.950;2022-11-11T10:24:27;11.30;1.00
1137;DHT22;557;48.466;7.950;2022-11-11T10:27:16;11.20;1.00
1137;DHT22;557;48.466;7.950;2022-11-11T10:30:15;11.30;1.00
1137;DHT22;557;48.466;7.950;2022-11-11T10:33:03;11.40;1.00
1137;DHT22;557;48.466;7.950;2022-11-11T10:35:51;11.40;1.00
1137;DHT22;557;48.466;7.950;2022-11-11T10:38:46;11.40;1.00
1137;DHT22;557;48.466;7.950;2022-11-11T10:41:37;11.50;1.00
1137;DHT22;557;48.466;7.950;2022-11-11T10:44:25;11.60;1.00
1137;DHT22;557;48.466;7.950;2022-11-11T10:47:17;11.80;1.00
1137;DHT22;557;48.466;7.950;2022-11-11T10:50:08;11.70;1.00
1137;DHT22;557;48.466;7.950;2022-11-11T10:53:03;11.80;1.00
1137;DHT22;557;48.466;7.950;2022-11-11T10:55:53;12.00;1.00
1137;DHT22;557;48.466;7.950;2022-11-11T10:58:47;12.10;1.00
1137;DHT22;557;48.466;7.950;2022-11-11T11:01:36;12.10;1.00
1137;DHT22;557;48.466;7.950;2022-11-11T11:04:30;11.90;1.00
1137;DHT22;557;48.466;7.950;2022-11-11T11:07:21;11.80;1.00
1137;DHT22;557;48.466;7.950;2022-11-11T11:10:13;11.70;1.00
1137;DHT22;557;48.466;7.950;2022-11-11T11:13:05;11.90;1.00
1137;DHT22;557;48.466;7.950;2022-11-11T11:15:56;12.20;1.00
1137;DHT22;557;48.466;7.950;2022-11-11T11:18:43;12.30;1.00
1137;DHT22;557;48.466;7.950;2022-11-11T11:21:47;12.30;1.00
1137;DHT22;557;48.466;7.950;2022-11-11T11:24:34;12.30;1.00
1137;DHT22;557;48.466;7.950;2022-11-11T11:27:25;12.20;1.00
1137;DHT22;557;48.466;7.950;2022-11-11T11:30:13;12.10;1.00
1137;DHT22;557;48.466;7.950;2022-11-11T11:33:00;11.90;1.00
1137;DHT22;557;48.466;7.950;2022-11-11T11:35:46;11.70;1.00
1137;DHT22;557;48.466;7.950;2022-11-11T11:38:41;11.70;1.00
1137;DHT22;557;48.466;7.950;2022-11-11T11:41:38;11.80;1.00
1137;DHT22;557;48.466;7.950;2022-11-11T11:44:25;12.00;1.00
1137;DHT22;557;48.466;7.950;2022-11-11T11:47:18;12.20;1.00
1137;DHT22;557;48.466;7.950;2022-11-11T11:50:35;12.30;1.00
1137;DHT22;557;48.466;7.950;2022-11-11T11:53:38;12.30;1.00
1137;DHT22;557;48.466;7.950;2022-11-11T11:56:35;12.50;1.00
1137;DHT22;557;48.466;7.950;2022-11-11T11:59:27;12.50;1.00
1137;DHT22;557;48.466;7.950;2022-11-11T12:05:36;12.40;1.00
1137;DHT22;557;48.466;7.950;2022-11-11T12:08:36;12.40;1.00
1137;DHT22;557;48.466;7.950;2022-11-11T12:11:34;12.60;1.00
1137;DHT22;557;48.466;7.950;2022-11-11T12:14:32;12.70;1.00
1137;DHT22;557;48.466;7.950;2022-11-11T12:17:32;12.70;1.00
1137;DHT22;557;48.466;7.950;2022-11-11T12:20:23;12.70;99.90
1137;DHT22;557;48.466;7.950;2022-11-11T12:23:22;12.70;1.00
1137;DHT22;557;48.466;7.950;2022-11-11T12:26:19;12.80;1.00
1137;DHT22;557;48.466;7.950;2022-11-11T12:29:18;12.80;99.90
1137;DHT22;557;48.466;7.950;2022-11-11T12:32:29;12.70;1.00
1137;DHT22;557;48.466;7.950;2022-11-11T12:35:31;12.70;1.00
1137;DHT22;557;48.466;7.950;2022-11-11T12:38:32;12.80;1.00
1137;DHT22;557;48.466;7.950;2022-11-11T12:41:26;12.90;1.00
1137;DHT22;557;48.466;7.950;2022-11-11T12:44:14;13.10;99.90
1137;DHT22;557;48.466;7.950;2022-11-11T12:47:16;13.10;1.00
1137;DHT22;557;48.466;7.950;2022-11-11T12:50:14;13.20;1.00
1137;DHT22;557;48.466;7.950;2022-11-11T12:53:16;13.30;99.90
1137;DHT22;557;48.466;7.950;2022-11-11T12:56:10;13.80;1.00
1137;DHT22;557;48.466;7.950;2022-11-11T12:59:02;14.10;99.90
1137;DHT22;557;48.466;7.950;2022-11-11T13:01:56;14.40;99.90
1137;DHT22;557;48.466;7.950;2022-11-11T13:04:57;14.50;1.00
1137;DHT22;557;48.466;7.950;2022-11-11T13:08:12;14.70;1.00
1137;DHT22;557;48.466;7.950;2022-11-11T13:11:06;14.80;1.00
1137;DHT22;557;48.466;7.950;2022-11-11T13:14:03;14.60;1.00
1137;DHT22;557;48.466;7.950;2022-11-11T13:16:56;14.50;99.90
1137;DHT22;557;48.466;7.950;2022-11-11T13:19:48;14.50;1.00
1137;DHT22;557;48.466;7.950;2022-11-11T13:22:34;14.40;1.00
1137;DHT22;557;48.466;7.950;2022-11-11T13:25:22;14.10;99.90
1137;DHT22;557;48.466;7.950;2022-11-11T13:28:15;14.10;1.00
1137;DHT22;557;48.466;7.950;2022-11-11T13:31:17;13.80;94.90
1137;DHT22;557;48.466;7.950;2022-11-11T13:34:11;13.80;99.90
1137;DHT22;557;48.466;7.950;2022-11-11T13:36:58;13.90;99.90
1137;DHT22;557;48.466;7.950;2022-11-11T13:39:46;14.00;99.90
1137;DHT22;557;48.466;7.950;2022-11-11T13:42:37;14.00;99.90
1137;DHT22;557;48.466;7.950;2022-11-11T13:45:27;14.10;99.90
1137;DHT22;557;48.466;7.950;2022-11-11T13:48:20;14.30;99.90
1137;DHT22;557;48.466;7.950;2022-11-11T13:51:18;14.90;29.10
1137;DHT22;557;48.466;7.950;2022-11-11T13:54:18;15.30;99.90
1137;DHT22;557;48.466;7.950;2022-11-11T13:57:07;15.30;1.00
1137;DHT22;557;48.466;7.950;2022-11-11T14:00:02;15.30;43.10
1137;DHT22;557;48.466;7.950;2022-11-11T14:06:50;15.30;1.00
1137;DHT22;557;48.466;7.950;2022-11-11T14:09:59;15.50;1.00
1137;DHT22;557;48.466;7.950;2022-11-11T14:12:47;15.60;99.90
1137;DHT22;557;48.466;7.950;2022-11-11T14:15:36;15.60;1.00
1137;DHT22;557;48.466;7.950;2022-11-11T14:18:41;15.40;99.90
1137;DHT22;557;48.466;7.950;2022-11-11T14:21:53;15.30;1.00
1137;DHT22;557;48.466;7.950;2022-11-11T14:24:41;15.10;99.90
1137;DHT22;557;48.466;7.950;2022-11-11T14:27:29;14.90;99.90
1137;DHT22;557;48.466;7.950;2022-11-11T14:30:36;14.60;1.00
1137;DHT22;557;48.466;7.950;2022-11-11T14:33:33;14.30;99.90
1137;DHT22;557;48.466;7.950;2022-11-11T14:36:23;14.00;1.00
1137;DHT22;557;48.466;7.950;2022-11-11T14:39:23;13.80;99.90
1137;DHT22;557;48.466;7.950;2022-11-11T14:42:43;13.40;99.90
1137;DHT22;557;48.466;7.950;2022-11-11T14:46:00;13.00;1.00
1137;DHT22;557;48.466;7.950;2022-11-11T14:49:02;12.80;1.00
1137;DHT22;557;48.466;7.950;2022-11-11T14:51:50;12.40;1.00
1137;DHT22;557;48.466;7.950;2022-11-11T14:54:46;12.20;1.00
1137;DHT22;557;48.466;7.950;2022-11-11T14:57:36;11.90;1.00
1137;DHT22;557;48.466;7.950;2022-11-11T15:00:24;11.60;9.50
1137;DHT22;557;48.466;7.950;2022-11-11T15:03:14;11.50;34.30
1137;DHT22;557;48.466;7.950;2022-11-11T15:06:05;11.30;53.70
1137;DHT22;557;48.466;7.950;2022-11-11T15:08:58;11.10;81.10
1137;DHT22;557;48.466;7.950;2022-11-11T15:11:52;11.00;99.90
1137;DHT22;557;48.466;7.950;2022-11-11T15:14:47;10.90;99.90
1137;DHT22;557;48.466;7.950;2022-11-11T15:17:43;10.80;99.90
1137;DHT22;557;48.466;7.950;2022-11-11T15:20:55;10.70;99.90
1137;DHT22;557;48.466;7.950;2022-11-11T15:23:47;10.60;99.90
1137;DHT22;557;48.466;7.950;2022-11-11T15:26:41;10.60;99.90
1137;DHT22;557;48.466;7.950;2022-11-11T15:29:49;10.50;99.90
1137;DHT22;557;48.466;7.950;2022-11-11T15:32:45;10.40;99.90
1137;DHT22;557;48.466;7.950;2022-11-11T15:35:40;10.30;99.90
1137;DHT22;557;48.466;7.950;2022-11-11T15:38:26;10.20;99.90
1137;DHT22;557;48.466;7.950;2022-11-11T15:41:23;10.20;99.90
1137;DHT22;557;48.466;7.950;2022-11-11T15:44:16;10.10;99.90
1137;DHT22;557;48.466;7.950;2022-11-11T15:47:05;10.10;99.90
1137;DHT22;557;48.466;7.950;2022-11-11T15:49:51;10.10;99.90
1137;DHT22;557;48.466;7.950;2022-11-11T15:52:37;10.00;99.90
1137;DHT22;557;48.466;7.950;2022-11-11T15:55:24;9.90;99.90
1137;DHT22;557;48.466;7.950;2022-11-11T15:58:13;9.80;99.90
1137;DHT22;557;48.466;7.950;2022-11-11T16:01:01;9.90;99.90
1137;DHT22;557;48.466;7.950;2022-11-11T16:03:49;9.80;99.90
1137;DHT22;557;48.466;7.950;2022-11-11T16:06:35;9.80;99.90
1137;DHT22;557;48.466;7.950;2022-11-11T16:09:25;9.70;99.90
1137;DHT22;557;48.466;7.950;2022-11-11T16:12:15;9.70;99.90
1137;DHT22;557;48.466;7.950;2022-11-11T16:15:04;9.60;99.90
1137;DHT22;557;48.466;7.950;2022-11-11T16:18:00;9.60;99.90
1137;DHT22;557;48.466;7.950;2022-11-11T16:20:53;9.60;99.90
1137;DHT22;557;48.466;7.950;2022-11-11T16:23:40;9.60;99.90
1137;DHT22;557;48.466;7.950;2022-11-11T16:26:26;9.60;99.90
1137;DHT22;557;48.466;7.950;2022-11-11T16:29:14;9.60;99.90
1137;DHT22;557;48.466;7.950;2022-11-11T16:32:00;9.50;99.90
1137;DHT22;557;48.466;7.950;2022-11-11T16:34:47;9.50;99.90
1137;DHT22;557;48.466;7.950;2022-11-11T16:37:52;9.50;99.90
1137;DHT22;557;48.466;7.950;2022-11-11T16:40:42;9.50;99.90
1137;DHT22;557;48.466;7.950;2022-11-11T16:43:30;9.40;99.90
1137;DHT22;557;48.466;7.950;2022-11-11T16:46:38;9.40;99.90
1137;DHT22;557;48.466;7.950;2022-11-11T16:49:26;9.40;99.90
1137;DHT22;557;48.466;7.950;2022-11-11T16:52:16;9.40;99.90
1137;DHT22;557;48.466;7.950;2022-11-11T16:55:06;9.40;99.90
1137;DHT22;557;48.466;7.950;2022-11-11T16:57:53;9.40;99.90
1137;DHT22;557;48.466;7.950;2022-11-11T17:00:39;9.40;99.90
1137;DHT22;557;48.466;7.950;2022-11-11T17:03:25;9.40;99.90
1137;DHT22;557;48.466;7.950;2022-11-11T17:06:11;9.40;99.90
1137;DHT22;557;48.466;7.950;2022-11-11T17:08:57;9.30;99.90
1137;DHT22;557;48.466;7.950;2022-11-11T17:11:44;9.30;99.90
1137;DHT22;557;48.466;7.950;2022-11-11T17:14:32;9.30;99.90
1137;DHT22;557;48.466;7.950;2022-11-11T17:17:18;9.20;99.90
1137;DHT22;557;48.466;7.950;2022-11-11T17:20:07;9.20;99.90
1137;DHT22;557;48.466;7.950;2022-11-11T17:22:55;9.20;99.90
1137;DHT22;557;48.466;7.950;2022-11-11T17:25:41;9.20;99.90
1137;DHT22;557;48.466;7.950;2022-11-11T17:28:30;9.20;99.90
1137;DHT22;557;48.466;7.950;2022-11-11T17:31:16;9.20;99.90
1137;DHT22;557;48.466;7.950;2022-11-11T17:34:05;9.20;99.90
1137;DHT22;557;48.466;7.950;2022-11-11T17:36:50;9.20;99.90
1137;DHT22;557;48.466;7.950;2022-11-11T17:39:36;9.20;99.90
1137;DHT22;557;48.466;7.950;2022-11-11T17:42:28;9.20;99.90
1137;DHT22;557;48.466;7.950;2022-11-11T17:45:15;9.20;99.90
1137;DHT22;557;48.466;7.950;2022-11-11T17:48:01;9.10;99.90
1137;DHT22;557;48.466;7.950;2022-11-11T17:50:47;9.20;99.90
1137;DHT22;557;48.466;7.950;2022-11-11T17:53:33;9.10;99.90
1137;DHT22;557;48.466;7.950;2022-11-11T17:56:20;9.10;99.90
1137;DHT22;557;48.466;7.950;2022-11-11T17:59:06;9.10;99.90
1137;DHT22;557;48.466;7.950;2022-11-11T18:01:53;9.10;99.90
1137;DHT22;557;48.466;7.950;2022-11-11T18:04:40;9.10;99.90
1137;DHT22;557;48.466;7.950;2022-11-11T18:07:26;9.10;99.90
1137;DHT22;557;48.466;7.950;2022-11-11T18:10:12;9.10;99.90
1137;DHT22;557;48.466;7.950;2022-11-11T18:12:58;9.10;99.90
1137;DHT22;557;48.466;7.950;2022-11-11T18:15:44;9.10;99.90
1137;DHT22;557;48.466;7.950;2022-11-11T18:18:36;9.00;99.90
1137;DHT22;557;48.466;7.950;2022-11-11T18:21:23;9.10;99.90
1137;DHT22;557;48.466;7.950;2022-11-11T18:24:09;9.00;99.90
1137;DHT22;557;48.466;7.950;2022-11-11T18:26:55;9.00;99.90
1137;DHT22;557;48.466;7.950;2022-11-11T18:29:41;9.00;99.90
1137;DHT22;557;48.466;7.950;2022-11-11T18:32:30;8.90;99.90
1137;DHT22;557;48.466;7.950;2022-11-11T18:35:17;8.90;99.90
1137;DHT22;557;48.466;7.950;2022-11-11T18:38:06;8.90;99.90
1137;DHT22;557;48.466;7.950;2022-11-11T18:40:52;8.80;99.90
1137;DHT22;557;48.466;7.950;2022-11-11T18:43:46;8.80;99.90
1137;DHT22;557;48.466;7.950;2022-11-11T18:46:34;8.80;99.90
1137;DHT22;557;48.466;7.950;2022-11-11T18:49:28;8.80;99.90
1137;DHT22;557;48.466;7.950;2022-11-11T18:52:16;8.80;99.90
1137;DHT22;557;48.466;7.950;2022-11-11T18:55:02;8.80;99.90
1137;DHT22;557;48.466;7.950;2022-11-11T18:57:48;8.80;99.90
1137;DHT22;557;48.466;7.950;2022-11-11T19:00:34;8.90;99.90
1137;DHT22;557;48.466;7.950;2022-11-11T19:03:20;9.00;99.90
1137;DHT22;557;48.466;7.950;2022-11-11T19:06:07;8.90;99.90
1137;DHT22;557;48.466;7.950;2022-11-11T19:08:56;8.90;99.90
1137;DHT22;557;48.466;7.950;2022-11-11T19:11:44;8.80;99.90
1137;DHT22;557;48.466;7.950;2022-11-11T19:14:30;8.70;99.90